Time;durP1;ratioP1;P1;durP2;ratioP2;P2;SDS_P1;SDS_P2;PMS_P1;PMS_P2;Temp;Humidity;BMP_temperature;BMP_pressure;BME280_temperature;BME280_humidity;BME280_pressure;Samples;Min_cycle;Max_cycle;Signal;HPM_P1;HPM_P2
2021/05/24 00:00:47;;;;;;;2.60;1.50;;;;;;;;;;4981116;28;20117;-57
2021/05/24 00:03:13;;;;;;;2.17;1.30;;;;;;;;;;4981416;28;20030;-56
2021/05/24 00:05:39;;;;;;;5.75;1.38;;;;;;;;;;4984735;28;20038;-56
2021/05/24 00:08:07;;;;;;;2.75;1.60;;;;;;;;;;4978413;28;20026;-56
2021/05/24 00:10:34;;;;;;;1.67;1.10;;;;;;;;;;4975043;28;20062;-56
2021/05/24 00:13:03;;;;;;;3.50;1.38;;;;;;;;;;4972091;28;20066;-56
2021/05/24 00:15:30;;;;;;;2.40;1.42;;;;;;;;;;4977318;28;20179;-56
2021/05/24 00:17:56;;;;;;;2.17;1.27;;;;;;;;;;4980214;28;20038;-56
2021/05/24 00:20:24;;;;;;;2.08;1.30;;;;;;;;;;4980472;28;20443;-56
2021/05/24 00:22:50;;;;;;;;;;;;;;;;;;4975598;28;20551;-56
2021/05/24 00:25:16;;;;;;;2.80;1.30;;;;;;;;;;4974703;28;19945;-57
2021/05/24 00:27:42;;;;;;;2.42;1.40;;;;;;;;;;4974387;28;20031;-56
2021/05/24 00:30:09;;;;;;;2.03;1.20;;;;;;;;;;4978357;28;20110;-56
2021/05/24 00:32:35;;;;;;;2.03;1.20;;;;;;;;;;4978982;28;20037;-57
2021/05/24 00:35:01;;;;;;;3.15;1.58;;;;;;;;;;4981000;28;20023;-56
2021/05/24 00:37:27;;;;;;;2.08;1.33;;;;;;;;;;4978238;28;20057;-56
2021/05/24 00:39:53;;;;;;;2.05;1.20;;;;;;;;;;4973389;28;20499;-56
2021/05/24 00:42:19;;;;;;;2.78;1.27;;;;;;;;;;4983306;28;20041;-56
2021/05/24 00:44:45;;;;;;;2.53;1.05;;;;;;;;;;4974428;28;20043;-56
2021/05/24 00:47:12;;;;;;;1.85;1.27;;;;;;;;;;4973066;28;20030;-56
2021/05/24 00:49:38;;;;;;;3.08;1.38;;;;;;;;;;4977029;28;20038;-56
2021/05/24 00:52:04;;;;;;;1.83;1.20;;;;;;;;;;4986385;28;20030;-56
2021/05/24 00:54:30;;;;;;;1.92;1.20;;;;;;;;;;4978294;28;20046;-56
2021/05/24 00:56:59;;;;;;;2.25;1.40;;;;;;;;;;4979095;28;20031;-56
2021/05/24 00:59:26;;;;;;;1.77;1.00;;;;;;;;;;4977108;28;20030;-56
2021/05/24 01:01:53;;;;;;;1.58;1.00;;;;;;;;;;4984040;28;20427;-56
2021/05/24 01:04:19;;;;;;;3.05;1.13;;;;;;;;;;4977473;28;20423;-56
2021/05/24 01:06:46;;;;;;;2.75;1.20;;;;;;;;;;4973937;28;20062;-56
2021/05/24 01:09:12;;;;;;;1.90;0.95;;;;;;;;;;4981259;28;20037;-56
2021/05/24 01:11:38;;;;;;;3.15;1.10;;;;;;;;;;4980975;28;20075;-56
2021/05/24 01:14:04;;;;;;;1.90;1.20;;;;;;;;;;4981258;28;20629;-56
2021/05/24 01:16:31;;;;;;;1.50;0.90;;;;;;;;;;4980178;28;20113;-56
2021/05/24 01:18:57;;;;;;;1.92;1.00;;;;;;;;;;4980613;28;20058;-56
2021/05/24 01:21:24;;;;;;;3.13;1.00;;;;;;;;;;4978065;28;20019;-56
2021/05/24 01:23:50;;;;;;;1.88;0.93;;;;;;;;;;4978238;28;20459;-56
2021/05/24 01:26:16;;;;;;;2.22;1.00;;;;;;;;;;4983362;28;20141;-56
2021/05/24 01:28:42;;;;;;;2.10;1.05;;;;;;;;;;4981495;28;20027;-56
2021/05/24 01:31:08;;;;;;;2.80;1.05;;;;;;;;;;4977408;28;20391;-56
2021/05/24 01:33:35;;;;;;;1.67;0.90;;;;;;;;;;4979887;28;20029;-56
2021/05/24 01:36:02;;;;;;;1.70;1.08;;;;;;;;;;4974433;28;20165;-56
2021/05/24 01:38:28;;;;;;;1.85;0.95;;;;;;;;;;4979914;28;20030;-56
2021/05/24 01:40:54;;;;;;;1.85;1.00;;;;;;;;;;4976880;28;20039;-57
2021/05/24 01:43:20;;;;;;;1.33;0.90;;;;;;;;;;4975552;28;20045;-57
2021/05/24 01:45:46;;;;;;;2.17;0.90;;;;;;;;;;4978146;28;20090;-56
2021/05/24 01:48:12;;;;;;;2.40;1.00;;;;;;;;;;4979005;28;20093;-56
2021/05/24 01:50:39;;;;;;;1.45;1.00;;;;;;;;;;4983331;28;20030;-56
2021/05/24 01:53:05;;;;;;;1.45;0.90;;;;;;;;;;4985138;28;20154;-57
2021/05/24 01:55:31;;;;;;;2.17;1.00;;;;;;;;;;4978300;28;20039;-56
2021/05/24 01:57:57;;;;;;;1.08;0.80;;;;;;;;;;4979496;28;20034;-56
2021/05/24 02:00:24;;;;;;;1.42;0.80;;;;;;;;;;4977017;28;20031;-56
2021/05/24 02:02:51;;;;;;;1.50;0.95;;;;;;;;;;4981775;28;20038;-56
2021/05/24 02:05:18;;;;;;;1.50;0.90;;;;;;;;;;4983165;28;20034;-56
2021/05/24 02:07:45;;;;;;;1.02;0.75;;;;;;;;;;4983692;28;20027;-56
2021/05/24 02:10:12;;;;;;;1.77;1.00;;;;;;;;;;4975182;28;20046;-56
2021/05/24 02:12:38;;;;;;;1.17;0.80;;;;;;;;;;4976366;28;20090;-56
2021/05/24 02:15:05;;;;;;;2.88;0.90;;;;;;;;;;4981966;28;20039;-56
2021/05/24 02:17:31;;;;;;;2.40;0.80;;;;;;;;;;4977257;28;20030;-56
2021/05/24 02:19:57;;;;;;;1.25;0.82;;;;;;;;;;4978636;28;20034;-56
2021/05/24 02:22:23;;;;;;;1.40;0.90;;;;;;;;;;4977412;28;20030;-56
2021/05/24 02:24:49;;;;;;;1.92;0.95;;;;;;;;;;4973660;28;20264;-56
2021/05/24 02:27:15;;;;;;;2.17;1.10;;;;;;;;;;4984573;28;20023;-56
2021/05/24 02:29:41;;;;;;;2.05;0.90;;;;;;;;;;4982655;28;20500;-56
2021/05/24 02:32:08;;;;;;;2.15;0.90;;;;;;;;;;4976968;28;20033;-56
2021/05/24 02:34:34;;;;;;;1.45;0.70;;;;;;;;;;4983441;28;20125;-56
2021/05/24 02:37:00;;;;;;;1.70;0.90;;;;;;;;;;4975288;28;20161;-56
2021/05/24 02:39:26;;;;;;;2.15;1.10;;;;;;;;;;4975641;28;20483;-56
2021/05/24 02:41:52;;;;;;;1.48;0.80;;;;;;;;;;4977022;28;20027;-57
2021/05/24 02:44:18;;;;;;;2.20;1.02;;;;;;;;;;4979287;28;20073;-56
2021/05/24 02:46:44;;;;;;;2.28;0.90;;;;;;;;;;4984161;28;20050;-56
2021/05/24 02:49:10;;;;;;;1.83;0.85;;;;;;;;;;4983809;28;20062;-56
2021/05/24 02:51:37;;;;;;;2.15;0.70;;;;;;;;;;4974830;28;20085;-56
2021/05/24 02:54:04;;;;;;;1.83;1.00;;;;;;;;;;4979582;28;20041;-56
2021/05/24 02:56:29;;;;;;;1.83;0.90;;;;;;;;;;4981222;28;20038;-56
2021/05/24 02:58:55;;;;;;;2.25;1.00;;;;;;;;;;4972727;28;20030;-57
2021/05/24 03:01:22;;;;;;;1.95;0.90;;;;;;;;;;4980372;28;20121;-56
2021/05/24 03:03:54;;;;;;;1.10;0.80;;;;;;;;;;4982621;28;20105;-56
2021/05/24 03:06:20;;;;;;;2.40;0.88;;;;;;;;;;4979655;28;20050;-56
2021/05/24 03:08:46;;;;;;;2.38;0.80;;;;;;;;;;4979274;28;20035;-56
2021/05/24 03:11:12;;;;;;;1.27;0.80;;;;;;;;;;4977153;28;20062;-56
2021/05/24 03:13:38;;;;;;;1.48;0.80;;;;;;;;;;4982141;28;20045;-56
2021/05/24 03:16:04;;;;;;;2.60;1.10;;;;;;;;;;4977563;28;20022;-56
2021/05/24 03:18:30;;;;;;;1.30;0.77;;;;;;;;;;4975812;28;20031;-56
2021/05/24 03:20:56;;;;;;;1.98;1.00;;;;;;;;;;4978220;28;20023;-56
2021/05/24 03:23:22;;;;;;;1.95;0.63;;;;;;;;;;4964851;28;20041;-57
2021/05/24 03:25:48;;;;;;;1.88;1.02;;;;;;;;;;4977231;28;20042;-56
2021/05/24 03:28:14;;;;;;;1.23;0.80;;;;;;;;;;4976707;28;20041;-56
2021/05/24 03:30:40;;;;;;;1.88;0.70;;;;;;;;;;4972585;28;20408;-55
2021/05/24 03:33:06;;;;;;;1.58;0.95;;;;;;;;;;4982316;28;20030;-56
2021/05/24 03:35:32;;;;;;;1.95;0.80;;;;;;;;;;4973941;28;20117;-55
2021/05/24 03:37:58;;;;;;;1.45;0.80;;;;;;;;;;4976188;28;20073;-56
2021/05/24 03:40:24;;;;;;;1.33;0.80;;;;;;;;;;4974413;28;20034;-55
2021/05/24 03:42:50;;;;;;;1.85;0.88;;;;;;;;;;4975445;28;20046;-56
2021/05/24 03:45:18;;;;;;;2.05;0.80;;;;;;;;;;4983478;28;20050;-56
2021/05/24 03:47:45;;;;;;;2.08;1.00;;;;;;;;;;4980472;28;20029;-56
2021/05/24 03:50:11;;;;;;;1.17;0.80;;;;;;;;;;4981821;28;20034;-56
2021/05/24 03:52:37;;;;;;;1.47;0.70;;;;;;;;;;4978641;28;20125;-56
2021/05/24 03:55:04;;;;;;;1.85;1.10;;;;;;;;;;4970706;28;20380;-56
2021/05/24 03:57:30;;;;;;;2.07;0.93;;;;;;;;;;4978132;28;20031;-57
2021/05/24 03:59:56;;;;;;;1.63;0.95;;;;;;;;;;4975243;28;20027;-56
2021/05/24 04:02:22;;;;;;;2.38;0.98;;;;;;;;;;4976864;28;20029;-56
2021/05/24 04:04:49;;;;;;;1.65;1.00;;;;;;;;;;4973191;28;20045;-56
2021/05/24 04:07:21;;;;;;;1.35;0.77;;;;;;;;;;4979349;28;20022;-56
2021/05/24 04:09:47;;;;;;;2.45;1.10;;;;;;;;;;4971841;28;20054;-56
2021/05/24 04:12:13;;;;;;;0.98;0.80;;;;;;;;;;4984445;28;20080;-56
2021/05/24 04:14:41;;;;;;;1.73;0.88;;;;;;;;;;4974662;28;20038;-56
2021/05/24 04:17:07;;;;;;;;;;;;;;;;;;4979039;28;20041;-57
2021/05/24 04:19:33;;;;;;;2.17;1.00;;;;;;;;;;4974935;28;19921;-56
2021/05/24 04:21:59;;;;;;;1.23;0.80;;;;;;;;;;4977001;28;20399;-57
2021/05/24 04:24:25;;;;;;;1.17;0.88;;;;;;;;;;4976442;28;20059;-56
2021/05/24 04:26:51;;;;;;;1.85;1.00;;;;;;;;;;4980097;28;20531;-56
2021/05/24 04:29:17;;;;;;;2.25;0.90;;;;;;;;;;4980045;28;20033;-56
2021/05/24 04:31:43;;;;;;;2.28;0.88;;;;;;;;;;4988397;28;20034;-56
2021/05/24 04:34:09;;;;;;;2.10;0.88;;;;;;;;;;4978707;28;20106;-56
2021/05/24 04:36:35;;;;;;;2.33;0.90;;;;;;;;;;4982839;28;20438;-56
2021/05/24 04:39:01;;;;;;;2.38;1.10;;;;;;;;;;4977360;28;20038;-56
2021/05/24 04:41:27;;;;;;;1.33;0.90;;;;;;;;;;4978899;28;20049;-56
2021/05/24 04:43:57;;;;;;;1.48;0.90;;;;;;;;;;4976871;28;20057;-56
2021/05/24 04:46:23;;;;;;;1.83;0.90;;;;;;;;;;4981748;28;20031;-56
2021/05/24 04:48:49;;;;;;;2.38;0.90;;;;;;;;;;4979811;28;20095;-56
2021/05/24 04:51:15;;;;;;;2.15;1.00;;;;;;;;;;4980641;28;20622;-56
2021/05/24 04:53:41;;;;;;;2.55;0.98;;;;;;;;;;4983364;28;20034;-56
2021/05/24 04:56:07;;;;;;;2.13;0.88;;;;;;;;;;4982425;28;20038;-56
2021/05/24 04:58:33;;;;;;;1.45;0.90;;;;;;;;;;4980736;28;20030;-56
2021/05/24 05:01:01;;;;;;;2.42;0.90;;;;;;;;;;4981372;28;20045;-56
2021/05/24 05:03:27;;;;;;;2.40;0.98;;;;;;;;;;4982654;28;20376;-56
2021/05/24 05:05:53;;;;;;;1.70;0.95;;;;;;;;;;4985734;28;20042;-56
2021/05/24 05:08:19;;;;;;;2.92;1.00;;;;;;;;;;4975589;28;20019;-56
2021/05/24 05:10:46;;;;;;;1.20;0.80;;;;;;;;;;4980244;28;20051;-60
2021/05/24 05:13:12;;;;;;;2.08;1.00;;;;;;;;;;4984670;28;20166;-56
2021/05/24 05:15:38;;;;;;;2.72;1.10;;;;;;;;;;4980687;28;20578;-56
2021/05/24 05:18:04;;;;;;;2.10;1.00;;;;;;;;;;4984570;28;20027;-56
2021/05/24 05:20:30;;;;;;;2.35;1.10;;;;;;;;;;4978452;28;20084;-56
2021/05/24 05:22:56;;;;;;;1.88;1.10;;;;;;;;;;4977021;28;20035;-56
2021/05/24 05:25:22;;;;;;;2.13;0.90;;;;;;;;;;4978766;28;20041;-56
2021/05/24 05:27:48;;;;;;;1.85;0.90;;;;;;;;;;4979388;28;20064;-56
2021/05/24 05:30:14;;;;;;;1.90;0.80;;;;;;;;;;4982495;28;20036;-56
2021/05/24 05:32:40;;;;;;;1.75;0.90;;;;;;;;;;4983563;28;20057;-56
2021/05/24 05:35:06;;;;;;;1.20;0.90;;;;;;;;;;4984802;28;20474;-56
2021/05/24 05:37:32;;;;;;;2.28;1.10;;;;;;;;;;4981591;28;20109;-56
2021/05/24 05:39:58;;;;;;;3.08;0.90;;;;;;;;;;4981341;28;20104;-56
2021/05/24 05:42:25;;;;;;;1.48;0.75;;;;;;;;;;4980815;28;20428;-56
2021/05/24 05:44:51;;;;;;;2.17;1.00;;;;;;;;;;4983153;28;20038;-56
2021/05/24 05:47:17;;;;;;;0.85;0.63;;;;;;;;;;4977546;28;20037;-56
2021/05/24 05:49:48;;;;;;;1.58;0.73;;;;;;;;;;4985207;28;20085;-55
2021/05/24 05:52:15;;;;;;;2.65;1.00;;;;;;;;;;4976745;28;20054;-56
2021/05/24 05:54:41;;;;;;;1.85;0.70;;;;;;;;;;4979223;28;20523;-56
2021/05/24 05:57:08;;;;;;;1.92;0.88;;;;;;;;;;4981378;28;20514;-56
2021/05/24 05:59:34;;;;;;;1.77;0.93;;;;;;;;;;4977685;28;20031;-56
2021/05/24 06:02:00;;;;;;;1.75;0.75;;;;;;;;;;4976475;28;20027;-56
2021/05/24 06:04:26;;;;;;;1.55;1.08;;;;;;;;;;4980261;28;20092;-56
2021/05/24 06:06:52;;;;;;;2.28;0.93;;;;;;;;;;4976236;28;20926;-56
2021/05/24 06:09:18;;;;;;;1.40;0.90;;;;;;;;;;4977917;28;20027;-57
2021/05/24 06:11:44;;;;;;;2.75;0.80;;;;;;;;;;4978667;28;20034;-56
2021/05/24 06:14:10;;;;;;;2.00;0.98;;;;;;;;;;4977093;28;20027;-56
2021/05/24 06:16:36;;;;;;;2.45;0.93;;;;;;;;;;4976583;28;20097;-56
2021/05/24 06:19:02;;;;;;;2.95;0.93;;;;;;;;;;4980292;28;20484;-56
2021/05/24 06:21:28;;;;;;;2.53;0.95;;;;;;;;;;4977736;28;20018;-56
2021/05/24 06:23:54;;;;;;;1.92;1.02;;;;;;;;;;4976822;28;20030;-56
2021/05/24 06:26:20;;;;;;;1.98;1.00;;;;;;;;;;4979931;28;20037;-57
2021/05/24 06:28:46;;;;;;;1.73;0.82;;;;;;;;;;4978282;28;20081;-56
2021/05/24 06:31:12;;;;;;;2.45;1.10;;;;;;;;;;4980016;28;20033;-55
2021/05/24 06:33:38;;;;;;;1.45;0.90;;;;;;;;;;4977023;28;20110;-56
2021/05/24 06:36:04;;;;;;;3.50;1.38;;;;;;;;;;4980931;28;20122;-56
2021/05/24 06:38:30;;;;;;;2.70;1.20;;;;;;;;;;4976298;28;20050;-56
2021/05/24 06:40:56;;;;;;;2.67;1.10;;;;;;;;;;4978905;28;20519;-56
2021/05/24 06:43:24;;;;;;;3.65;1.38;;;;;;;;;;4977245;28;20028;-56
2021/05/24 06:45:50;;;;;;;2.42;1.00;;;;;;;;;;4977127;28;20464;-56
2021/05/24 06:48:16;;;;;;;4.07;1.20;;;;;;;;;;4983091;28;20125;-56
2021/05/24 06:50:42;;;;;;;2.53;1.73;;;;;;;;;;4979498;28;20053;-56
2021/05/24 06:53:08;;;;;;;4.50;1.50;;;;;;;;;;4977879;28;20487;-56
2021/05/24 06:55:34;;;;;;;3.33;1.50;;;;;;;;;;4971648;28;20495;-56
2021/05/24 06:58:00;;;;;;;5.07;1.75;;;;;;;;;;4975956;28;20597;-56
2021/05/24 07:00:26;;;;;;;4.25;1.80;;;;;;;;;;4976314;28;20026;-56
2021/05/24 07:02:53;;;;;;;3.70;1.90;;;;;;;;;;4977807;28;20030;-56
2021/05/24 07:05:19;;;;;;;6.25;1.83;;;;;;;;;;4975499;28;20046;-61
2021/05/24 07:07:45;;;;;;;3.23;1.70;;;;;;;;;;4975102;28;20023;-58
2021/05/24 07:10:13;;;;;;;6.47;2.30;;;;;;;;;;4981279;28;20419;-57
2021/05/24 07:12:39;;;;;;;5.95;1.75;;;;;;;;;;4978310;28;20492;-56
2021/05/24 07:15:06;;;;;;;3.83;2.00;;;;;;;;;;4976186;28;20105;-58
2021/05/24 07:17:32;;;;;;;3.72;1.90;;;;;;;;;;4978967;28;20026;-57
2021/05/24 07:19:58;;;;;;;3.35;2.17;;;;;;;;;;4982279;28;20033;-58
2021/05/24 07:22:25;;;;;;;5.25;2.25;;;;;;;;;;4978490;28;20031;-58
2021/05/24 07:24:53;;;;;;;4.95;2.10;;;;;;;;;;4972661;28;20529;-58
2021/05/24 07:27:19;;;;;;;3.90;1.80;;;;;;;;;;4977709;28;20030;-58
2021/05/24 07:29:45;;;;;;;4.47;2.10;;;;;;;;;;4979037;28;20034;-57
2021/05/24 07:32:11;;;;;;;3.72;1.98;;;;;;;;;;4973126;28;20114;-57
2021/05/24 07:34:40;;;;;;;4.25;1.88;;;;;;;;;;4975004;28;20038;-57
2021/05/24 07:37:06;;;;;;;4.35;2.00;;;;;;;;;;4976027;28;20150;-57
2021/05/24 07:39:32;;;;;;;4.30;2.50;;;;;;;;;;4979925;28;20054;-57
2021/05/24 07:42:00;;;;;;;5.25;2.15;;;;;;;;;;4973686;28;20030;-57
2021/05/24 07:44:27;;;;;;;4.63;2.38;;;;;;;;;;4975327;28;20062;-57
2021/05/24 07:46:53;;;;;;;4.32;2.30;;;;;;;;;;4973477;28;20034;-57
2021/05/24 07:49:20;;;;;;;4.22;2.80;;;;;;;;;;4971904;28;20061;-57
2021/05/24 07:51:46;;;;;;;3.63;1.88;;;;;;;;;;4976270;28;20458;-57
2021/05/24 07:54:12;;;;;;;7.22;2.95;;;;;;;;;;4981331;28;20597;-58
2021/05/24 07:56:38;;;;;;;4.18;2.00;;;;;;;;;;4974939;28;20066;-57
2021/05/24 07:59:05;;;;;;;6.22;3.10;;;;;;;;;;4974776;28;20487;-57
2021/05/24 08:01:31;;;;;;;5.25;2.20;;;;;;;;;;4977038;28;20030;-57
2021/05/24 08:03:57;;;;;;;4.40;2.42;;;;;;;;;;4970251;28;20026;-57
2021/05/24 08:06:23;;;;;;;4.85;2.28;;;;;;;;;;4972830;28;20114;-57
2021/05/24 08:08:49;;;;;;;5.63;2.40;;;;;;;;;;4978501;28;20050;-57
2021/05/24 08:11:15;;;;;;;4.28;2.35;;;;;;;;;;4977505;28;20085;-57
2021/05/24 08:13:42;;;;;;;3.97;2.75;;;;;;;;;;4975132;28;20088;-57
2021/05/24 08:16:12;;;;;;;4.95;2.92;;;23.90;42.10;;;;;;4974535;28;20414;-57
2021/05/24 08:18:38;;;;;;;4.07;2.15;;;23.00;45.70;;;;;;4977784;28;20329;-58
2021/05/24 08:21:04;;;;;;;6.70;2.75;;;23.00;46.10;;;;;;4974499;28;20520;-58
2021/05/24 08:23:30;;;;;;;3.92;2.55;;;22.90;45.80;;;;;;4976564;28;20032;-58
2021/05/24 08:25:55;;;;;;;6.00;3.10;;;22.80;46.00;;;;;;4975936;28;20114;-58
2021/05/24 08:28:21;;;;;;;5.75;2.65;;;22.80;45.90;;;;;;4977233;28;20519;-58
2021/05/24 08:30:47;;;;;;;3.92;2.17;;;22.80;46.20;;;;;;4972528;28;20515;-58
2021/05/24 08:33:12;;;;;;;3.88;2.30;;;22.80;47.20;;;;;;4975344;28;20049;-58
2021/05/24 08:35:38;;;;;;;3.90;1.98;;;22.80;47.20;;;;;;4977961;28;20071;-58
2021/05/24 08:38:03;;;;;;;4.82;2.53;;;22.90;46.20;;;;;;4970918;28;20455;-58
2021/05/24 08:40:29;;;;;;;4.05;2.20;;;22.90;45.90;;;;;;4974400;28;20031;-58
2021/05/24 08:42:57;;;;;;;5.43;2.13;;;22.90;46.10;;;;;;4975434;28;20092;-57
2021/05/24 08:45:25;;;;;;;3.85;2.00;;;22.90;46.20;;;;;;4975000;28;20054;-57
2021/05/24 08:47:51;;;;;;;7.38;2.20;;;22.90;47.80;;;;;;4974650;28;20077;-58
2021/05/24 08:50:17;;;;;;;5.03;1.92;;;22.90;47.40;;;;;;4975233;28;20495;-57
2021/05/24 08:52:43;;;;;;;4.43;2.22;;;22.90;46.00;;;;;;4976641;28;20015;-57
2021/05/24 08:55:11;;;;;;;3.95;2.15;;;22.90;46.00;;;;;;4973523;28;20031;-57
2021/05/24 08:57:41;;;;;;;4.40;1.85;;;22.90;45.90;;;;;;4972635;28;20019;-56
2021/05/24 09:00:13;;;;;;;4.00;2.10;;;22.80;46.10;;;;;;4972868;28;20034;-55
2021/05/24 09:03:00;;;;;;;5.18;1.92;;;22.80;46.70;;;;;;4978159;28;20384;-56
2021/05/24 09:05:32;;;;;;;6.00;1.58;;;22.70;46.40;;;;;;4972365;28;20057;-56
2021/05/24 09:08:04;;;;;;;3.92;1.90;;;22.70;46.90;;;;;;4977103;28;20515;-57
2021/05/24 09:10:31;;;;;;;3.88;1.90;;;22.70;46.60;;;;;;4974809;28;20410;-56
2021/05/24 09:12:58;;;;;;;3.80;1.88;;;22.70;47.60;;;;;;4979314;28;20030;-56
2021/05/24 09:15:25;;;;;;;5.63;2.10;;;22.70;46.50;;;;;;4978812;28;20030;-56
2021/05/24 09:18:00;;;;;;;3.50;1.98;;;22.70;47.60;;;;;;4979785;28;20121;-56
2021/05/24 09:20:30;;;;;;;3.63;2.08;;;22.70;49.10;;;;;;4975511;28;20038;-56
2021/05/24 09:23:17;;;;;;;3.85;1.90;;;22.70;46.90;;;;;;4981497;28;20085;-56
2021/05/24 09:26:04;;;;;;;4.85;2.22;;;22.70;46.70;;;;;;4976388;28;20506;-56
2021/05/24 09:28:41;;;;;;;3.17;1.83;;;22.80;47.60;;;;;;4980186;28;20031;-56
2021/05/24 09:31:09;;;;;;;;;;;22.80;48.00;;;;;;4973257;28;20081;-56
2021/05/24 09:33:37;;;;;;;3.15;1.65;;;22.80;47.60;;;;;;4985682;28;19921;-56
2021/05/24 09:36:03;;;;;;;;;;;22.80;47.90;;;;;;4975895;28;20073;-56
2021/05/24 09:38:36;;;;;;;4.10;2.30;;;22.80;47.00;;;;;;4980084;28;19918;-57
2021/05/24 09:41:02;;;;;;;3.88;1.80;;;22.90;46.80;;;;;;4979223;28;20022;-56
2021/05/24 09:43:39;;;;;;;4.43;2.13;;;22.90;47.80;;;;;;4978616;28;20046;-56
2021/05/24 09:46:10;;;;;;;3.85;2.10;;;22.90;47.70;;;;;;4973961;28;20045;-56
2021/05/24 09:48:36;;;;;;;3.90;2.00;;;22.90;47.10;;;;;;4980432;28;20027;-57
2021/05/24 09:51:07;;;;;;;5.43;1.98;;;23.00;48.50;;;;;;4983945;28;20156;-57
2021/05/24 09:53:33;;;;;;;3.78;1.90;;;23.00;48.70;;;;;;4982651;28;20034;-53
2021/05/24 09:56:07;;;;;;;5.47;2.10;;;23.00;47.70;;;;;;4980634;28;20088;-57
2021/05/24 09:58:33;;;;;;;4.15;1.90;;;23.00;48.40;;;;;;4979331;28;20432;-55
2021/05/24 10:01:19;;;;;;;3.70;2.03;;;23.00;48.00;;;;;;4976485;28;20019;-55
2021/05/24 10:03:48;;;;;;;5.90;2.20;;;23.00;46.90;;;;;;4974115;28;20037;-56
2021/05/24 10:06:14;;;;;;;4.28;2.13;;;22.90;48.60;;;;;;4981699;28;20066;-55
2021/05/24 10:08:41;;;;;;;4.72;2.05;;;23.00;46.40;;;;;;4975172;28;20030;-58
2021/05/24 10:11:07;;;;;;;3.70;1.88;;;23.00;47.00;;;;;;4971667;28;20041;-57
2021/05/24 10:13:33;;;;;;;4.72;2.25;;;23.00;46.90;;;;;;4980675;28;20042;-57
2021/05/24 10:16:04;;;;;;;3.88;2.22;;;23.00;45.90;;;;;;4974498;28;20034;-57
2021/05/24 10:18:32;;;;;;;4.03;2.05;;;23.00;46.20;;;;;;4976061;28;20027;-56
2021/05/24 10:21:00;;;;;;;5.50;2.50;;;22.90;47.10;;;;;;4974201;28;20121;-57
2021/05/24 10:23:27;;;;;;;3.85;2.10;;;23.00;45.90;;;;;;4973549;28;20525;-56
2021/05/24 10:25:56;;;;;;;5.25;2.22;;;23.00;46.70;;;;;;4981347;28;20130;-56
2021/05/24 10:28:22;;;;;;;5.15;2.40;;;23.00;48.20;;;;;;4980290;28;20039;-56
2021/05/24 10:30:48;;;;;;;3.75;2.10;;;23.00;45.70;;;;;;4982997;28;20455;-56
2021/05/24 10:33:14;;;;;;;3.70;2.30;;;23.10;45.30;;;;;;4974787;28;20026;-57
2021/05/24 10:35:43;;;;;;;4.28;1.77;;;23.10;45.80;;;;;;4978075;28;20034;-58
2021/05/24 10:38:28;;;;;;;3.28;1.88;;;23.10;44.50;;;;;;4983570;28;20077;-57
2021/05/24 10:41:10;;;;;;;3.78;1.77;;;23.20;45.00;;;;;;4976199;28;20030;-57
2021/05/24 10:43:45;;;;;;;3.92;2.00;;;23.10;44.10;;;;;;4978807;28;20077;-58
2021/05/24 10:46:26;;;;;;;3.00;1.70;;;23.10;44.00;;;;;;4976029;28;20109;-57
2021/05/24 10:49:10;;;;;;;4.80;3.20;;;23.20;44.10;;;;;;4974745;28;20554;-57
2021/05/24 10:51:51;;;;;;;5.35;3.30;;;23.20;44.00;;;;;;4980224;28;20035;-57
2021/05/24 10:54:28;;;;;;;5.90;3.17;;;23.20;44.10;;;;;;4975333;28;20034;-57
2021/05/24 10:56:59;;;;;;;5.00;3.50;;;23.30;44.30;;;;;;4977739;28;20039;-57
2021/05/24 10:59:46;;;;;;;4.72;3.70;;;23.20;44.10;;;;;;4972827;28;20019;-57
2021/05/24 11:02:16;;;;;;;5.18;3.80;;;23.20;44.10;;;;;;4973051;28;20042;-57
2021/05/24 11:04:57;;;;;;;6.07;4.18;;;23.20;44.20;;;;;;4975935;28;20505;-57
2021/05/24 11:07:43;;;;;;;4.88;3.90;;;23.20;44.20;;;;;;4974264;28;20030;-58
2021/05/24 11:10:14;;;;;;;5.03;3.92;;;23.30;44.30;;;;;;4976211;28;20038;-57
2021/05/24 11:12:46;;;;;;;5.80;4.78;;;23.20;44.60;;;;;;4974511;28;20584;-57
2021/05/24 11:15:31;;;;;;;6.68;5.38;;;23.20;45.90;;;;;;4983018;28;20038;-56
2021/05/24 11:18:00;;;;;;;6.18;5.40;;;23.20;46.70;;;;;;4978701;28;20026;-57
2021/05/24 11:20:36;;;;;;;5.53;5.03;;;23.30;46.50;;;;;;4975013;28;20035;-56
2021/05/24 11:25:53;;;;;;;6.72;4.70;;;23.60;47.70;;;;;;4982246;28;20458;-57
2021/05/24 11:28:20;;;;;;;7.15;4.50;;;23.60;47.60;;;;;;4980756;28;20034;-56
2021/05/24 11:31:10;;;;;;;6.22;4.07;;;23.70;47.70;;;;;;4972765;28;20566;-56
2021/05/24 11:33:49;;;;;;;6.75;4.15;;;23.80;47.80;;;;;;4977226;28;20049;-57
2021/05/24 11:36:16;;;;;;;5.65;4.00;;;23.80;47.50;;;;;;4975944;28;20038;-56
2021/05/24 11:39:17;;;;;;;;;;;23.80;47.10;;;;;;4974453;28;20027;-56
2021/05/24 11:42:04;;;;;;;4.10;3.33;;;23.90;47.10;;;;;;4965658;28;19910;-58
2021/05/24 11:44:38;;;;;;;5.95;3.72;;;21.30;45.90;;;;;;4967225;28;20039;-58
2021/05/24 11:47:09;;;;;;;6.90;3.40;;;19.70;50.20;;;;;;4963864;28;20053;-57
2021/05/24 11:49:44;;;;;;;5.03;3.33;;;20.00;58.10;;;;;;4964547;28;20023;-59
2021/05/24 11:52:12;;;;;;;4.15;2.88;;;22.10;53.30;;;;;;4963450;28;20857;-60
2021/05/24 11:54:38;;;;;;;4.32;2.70;;;22.90;49.60;;;;;;4948962;28;20110;-60
2021/05/24 11:57:07;;;;;;;7.50;3.15;;;23.30;48.90;;;;;;4960351;28;20035;-58
2021/05/24 11:59:33;;;;;;;6.13;2.95;;;23.40;48.60;;;;;;4954815;28;20042;-58
2021/05/24 12:02:00;;;;;;;4.38;2.78;;;23.40;48.20;;;;;;4965360;28;20070;-57
2021/05/24 12:04:28;;;;;;;9.60;2.85;;;23.40;48.70;;;;;;4960766;28;20152;-57
2021/05/24 12:07:02;;;;;;;4.78;2.60;;;23.40;49.00;;;;;;4961505;28;20183;-58
2021/05/24 12:09:35;;;;;;;7.43;2.95;;;23.40;48.20;;;;;;4965807;28;20043;-59
2021/05/24 12:12:22;;;;;;;4.75;2.20;;;23.40;49.40;;;;;;4964362;28;20281;-58
2021/05/24 12:14:50;;;;;;;9.68;2.97;;;23.40;48.40;;;;;;4966381;28;20044;-58
2021/05/24 12:17:24;;;;;;;4.68;2.45;;;23.30;49.00;;;;;;4981438;28;20411;-59
2021/05/24 12:19:52;;;;;;;4.82;2.15;;;23.40;49.00;;;;;;4972902;28;20498;-58
2021/05/24 12:22:19;;;;;;;7.30;2.53;;;23.40;48.60;;;;;;4972835;28;20034;-59
2021/05/24 12:24:47;;;;;;;4.30;2.15;;;23.40;47.30;;;;;;4974952;28;20117;-58
2021/05/24 12:27:14;;;;;;;4.13;2.35;;;23.40;48.20;;;;;;4983691;28;20042;-58
2021/05/24 12:30:16;;;;;;;3.65;1.95;;;23.40;47.50;;;;;;4976576;28;20399;-58
2021/05/24 12:32:49;;;;;;;5.38;2.00;;;23.40;47.10;;;;;;4979554;28;20030;-58
2021/05/24 12:35:19;;;;;;;5.97;1.77;;;23.30;47.00;;;;;;4976730;28;20026;-58
2021/05/24 12:37:56;;;;;;;2.88;1.90;;;23.30;47.20;;;;;;4977958;28;20031;-58
2021/05/24 12:40:25;;;;;;;6.47;1.80;;;23.30;46.80;;;;;;4972103;28;20053;-58
2021/05/24 12:42:51;;;;;;;4.68;1.80;;;23.30;47.30;;;;;;4976617;28;20059;-58
2021/05/24 12:45:17;;;;;;;4.15;1.90;;;23.20;47.20;;;;;;4976370;28;20073;-59
2021/05/24 12:47:43;;;;;;;4.85;1.90;;;23.20;47.40;;;;;;4976052;28;20170;-59
2021/05/24 12:50:14;;;;;;;3.95;1.85;;;23.20;47.30;;;;;;4977690;28;20026;-58
2021/05/24 12:52:40;;;;;;;3.15;1.80;;;23.20;47.10;;;;;;4980431;28;20109;-58
2021/05/24 12:55:12;;;;;;;4.45;1.70;;;23.20;47.40;;;;;;4976114;28;20042;-58
2021/05/24 12:57:40;;;;;;;4.30;1.73;;;23.10;47.10;;;;;;4982601;28;20371;-58
2021/05/24 13:00:06;;;;;;;6.20;1.90;;;23.10;47.60;;;;;;4982757;28;20026;-58
2021/05/24 13:02:32;;;;;;;3.42;1.60;;;23.10;47.60;;;;;;4980853;28;20062;-58
2021/05/24 13:05:20;;;;;;;3.95;1.83;;;23.10;47.70;;;;;;4978298;28;20058;-58
2021/05/24 13:07:57;;;;;;;4.53;1.70;;;23.10;47.30;;;;;;4989201;28;20026;-58
2021/05/24 13:10:39;;;;;;;4.63;1.80;;;23.10;47.20;;;;;;4974867;28;20079;-58
2021/05/24 13:13:18;;;;;;;5.18;1.65;;;23.10;47.50;;;;;;4979725;28;20106;-58
2021/05/24 13:15:48;;;;;;;2.65;1.52;;;23.00;47.30;;;;;;4974322;28;20031;-58
2021/05/24 13:18:30;;;;;;;4.25;1.55;;;23.00;47.10;;;;;;4976313;28;20495;-58
2021/05/24 13:31:38;;;;;;;3.85;1.40;;;22.90;46.90;;;;;;4975511;28;20053;-58
2021/05/24 13:34:05;;;;;;;3.75;1.50;;;22.90;46.80;;;;;;4977790;28;20037;-58
2021/05/24 13:36:34;;;;;;;3.08;1.50;;;22.90;47.30;;;;;;4980800;28;20041;-58
2021/05/24 13:39:03;;;;;;;4.55;1.48;;;22.90;46.80;;;;;;4980547;28;20094;-58
2021/05/24 13:41:30;;;;;;;3.92;1.23;;;22.90;46.50;;;;;;4980099;28;20050;-59
2021/05/24 13:43:57;;;;;;;4.20;1.40;;;22.90;47.50;;;;;;4974806;28;20061;-58
2021/05/24 13:46:24;;;;;;;3.17;1.30;;;22.90;46.80;;;;;;4978190;28;20078;-58
2021/05/24 13:48:50;;;;;;;;;;;22.90;46.80;;;;;;4981922;28;20057;-58
2021/05/24 13:51:17;;;;;;;6.30;1.60;;;22.90;46.60;;;;;;4981376;28;19910;-58
2021/05/24 13:53:43;;;;;;;1.77;1.10;;;22.90;46.80;;;;;;4982264;28;21342;-58
2021/05/24 13:56:09;;;;;;;4.05;1.50;;;22.90;46.40;;;;;;4981408;28;20022;-58
2021/05/24 13:58:35;;;;;;;5.22;1.50;;;22.90;46.60;;;;;;4980361;28;20114;-59
2021/05/24 14:01:01;;;;;;;4.07;1.50;;;22.90;46.30;;;;;;4972844;28;20094;-58
2021/05/24 14:03:27;;;;;;;4.15;1.30;;;22.90;46.60;;;;;;4983177;28;20093;-57
2021/05/24 14:05:52;;;;;;;4.00;1.45;;;22.90;46.60;;;;;;4976904;28;20549;-57
2021/05/24 14:08:19;;;;;;;4.30;1.70;;;22.80;46.40;;;;;;4978083;28;20111;-57
2021/05/24 14:10:44;;;;;;;5.03;1.40;;;22.80;46.10;;;;;;4978101;28;20137;-58
2021/05/24 14:13:11;;;;;;;4.28;1.35;;;22.80;46.20;;;;;;4979438;28;20105;-59